sensor_id;sensor_type;location;lat;lon;timestamp;P1;durP1;ratioP1;P2;durP2;ratioP2
36651;SDS011;53334;51.976;20.144;2023-04-15T00:02:14;3.67;;;2.15;;
36651;SDS011;53334;51.976;20.144;2023-04-15T00:04:48;2.50;;;2.30;;
36651;SDS011;53334;51.976;20.144;2023-04-15T00:07:22;2.70;;;2.40;;
36651;SDS011;53334;51.976;20.144;2023-04-15T00:09:55;2.63;;;2.42;;
36651;SDS011;53334;51.976;20.144;2023-04-15T00:12:28;2.30;;;2.10;;
36651;SDS011;53334;51.976;20.144;2023-04-15T00:15:02;2.55;;;2.33;;
36651;SDS011;53334;51.976;20.144;2023-04-15T00:17:37;2.67;;;2.20;;
36651;SDS011;53334;51.976;20.144;2023-04-15T00:20:10;2.47;;;2.25;;
36651;SDS011;53334;51.976;20.144;2023-04-15T00:22:45;5.70;;;2.08;;
36651;SDS011;53334;51.976;20.144;2023-04-15T00:25:18;2.05;;;1.95;;
36651;SDS011;53334;51.976;20.144;2023-04-15T00:27:51;2.58;;;1.92;;
36651;SDS011;53334;51.976;20.144;2023-04-15T00:30:24;2.45;;;1.98;;
36651;SDS011;53334;51.976;20.144;2023-04-15T00:32:59;2.50;;;2.30;;
36651;SDS011;53334;51.976;20.144;2023-04-15T00:35:34;2.47;;;2.25;;
36651;SDS011;53334;51.976;20.144;2023-04-15T00:40:40;1.85;;;1.75;;
36651;SDS011;53334;51.976;20.144;2023-04-15T00:43:14;4.95;;;2.25;;
36651;SDS011;53334;51.976;20.144;2023-04-15T00:45:48;2.13;;;1.92;;
36651;SDS011;53334;51.976;20.144;2023-04-15T00:48:25;1.98;;;1.88;;
36651;SDS011;53334;51.976;20.144;2023-04-15T00:50:59;1.63;;;1.48;;
36651;SDS011;53334;51.976;20.144;2023-04-15T00:53:32;2.22;;;2.03;;
36651;SDS011;53334;51.976;20.144;2023-04-15T00:56:06;1.70;;;1.60;;
36651;SDS011;53334;51.976;20.144;2023-04-15T00:58:40;3.15;;;1.95;;
36651;SDS011;53334;51.976;20.144;2023-04-15T01:01:15;2.47;;;2.00;;
36651;SDS011;53334;51.976;20.144;2023-04-15T01:03:50;2.08;;;1.98;;
36651;SDS011;53334;51.976;20.144;2023-04-15T01:06:24;2.92;;;2.63;;
36651;SDS011;53334;51.976;20.144;2023-04-15T01:08:58;4.97;;;2.22;;
36651;SDS011;53334;51.976;20.144;2023-04-15T01:11:33;4.60;;;2.22;;
36651;SDS011;53334;51.976;20.144;2023-04-15T01:14:07;1.85;;;1.75;;
36651;SDS011;53334;51.976;20.144;2023-04-15T01:16:41;2.00;;;1.52;;
36651;SDS011;53334;51.976;20.144;2023-04-15T01:19:18;4.88;;;1.83;;
36651;SDS011;53334;51.976;20.144;2023-04-15T01:21:51;2.20;;;2.00;;
36651;SDS011;53334;51.976;20.144;2023-04-15T01:24:25;2.42;;;1.88;;
36651;SDS011;53334;51.976;20.144;2023-04-15T01:27:01;2.03;;;1.83;;
36651;SDS011;53334;51.976;20.144;2023-04-15T01:29:36;2.20;;;2.00;;
36651;SDS011;53334;51.976;20.144;2023-04-15T01:32:10;3.33;;;1.90;;
36651;SDS011;53334;51.976;20.144;2023-04-15T01:35:02;2.50;;;1.52;;
36651;SDS011;53334;51.976;20.144;2023-04-15T01:37:51;1.65;;;1.55;;
36651;SDS011;53334;51.976;20.144;2023-04-15T01:40:26;1.92;;;1.67;;
36651;SDS011;53334;51.976;20.144;2023-04-15T01:43:02;4.32;;;2.65;;
36651;SDS011;53334;51.976;20.144;2023-04-15T01:45:36;4.40;;;1.75;;
36651;SDS011;53334;51.976;20.144;2023-04-15T01:48:09;2.45;;;2.05;;
36651;SDS011;53334;51.976;20.144;2023-04-15T01:50:43;2.33;;;2.13;;
36651;SDS011;53334;51.976;20.144;2023-04-15T01:53:18;2.15;;;1.95;;
36651;SDS011;53334;51.976;20.144;2023-04-15T01:55:51;1.70;;;1.40;;
36651;SDS011;53334;51.976;20.144;2023-04-15T01:58:26;2.60;;;1.90;;
36651;SDS011;53334;51.976;20.144;2023-04-15T02:00:59;1.88;;;1.73;;
36651;SDS011;53334;51.976;20.144;2023-04-15T02:03:36;2.38;;;2.17;;
36651;SDS011;53334;51.976;20.144;2023-04-15T02:06:10;1.77;;;1.67;;
36651;SDS011;53334;51.976;20.144;2023-04-15T02:08:43;2.08;;;1.85;;
36651;SDS011;53334;51.976;20.144;2023-04-15T02:11:16;2.03;;;1.90;;
36651;SDS011;53334;51.976;20.144;2023-04-15T02:13:51;1.80;;;1.70;;
36651;SDS011;53334;51.976;20.144;2023-04-15T02:16:24;2.25;;;2.05;;
36651;SDS011;53334;51.976;20.144;2023-04-15T02:18:58;2.10;;;1.75;;
36651;SDS011;53334;51.976;20.144;2023-04-15T02:21:32;2.30;;;2.10;;
36651;SDS011;53334;51.976;20.144;2023-04-15T02:24:05;1.88;;;1.77;;
36651;SDS011;53334;51.976;20.144;2023-04-15T02:26:39;1.90;;;1.70;;
36651;SDS011;53334;51.976;20.144;2023-04-15T02:29:13;1.70;;;1.60;;
36651;SDS011;53334;51.976;20.144;2023-04-15T02:31:46;1.95;;;1.85;;
36651;SDS011;53334;51.976;20.144;2023-04-15T02:34:19;4.35;;;1.92;;
36651;SDS011;53334;51.976;20.144;2023-04-15T02:36:53;4.68;;;2.20;;
36651;SDS011;53334;51.976;20.144;2023-04-15T02:39:28;1.90;;;1.67;;
36651;SDS011;53334;51.976;20.144;2023-04-15T02:42:01;3.20;;;1.83;;
36651;SDS011;53334;51.976;20.144;2023-04-15T02:44:37;3.20;;;2.10;;
36651;SDS011;53334;51.976;20.144;2023-04-15T02:47:10;4.50;;;2.00;;
36651;SDS011;53334;51.976;20.144;2023-04-15T02:49:46;2.10;;;1.90;;
36651;SDS011;53334;51.976;20.144;2023-04-15T02:52:19;2.10;;;1.67;;
36651;SDS011;53334;51.976;20.144;2023-04-15T02:54:52;4.03;;;1.90;;
36651;SDS011;53334;51.976;20.144;2023-04-15T02:57:28;1.77;;;1.58;;
36651;SDS011;53334;51.976;20.144;2023-04-15T03:00:08;1.60;;;1.50;;
36651;SDS011;53334;51.976;20.144;2023-04-15T03:02:45;1.60;;;1.50;;
36651;SDS011;53334;51.976;20.144;2023-04-15T03:05:22;2.92;;;1.88;;
36651;SDS011;53334;51.976;20.144;2023-04-15T03:07:56;2.17;;;2.00;;
36651;SDS011;53334;51.976;20.144;2023-04-15T03:10:29;1.95;;;1.80;;
36651;SDS011;53334;51.976;20.144;2023-04-15T03:13:02;1.48;;;1.38;;
36651;SDS011;53334;51.976;20.144;2023-04-15T03:15:37;3.92;;;1.50;;
36651;SDS011;53334;51.976;20.144;2023-04-15T03:18:10;3.38;;;1.80;;
36651;SDS011;53334;51.976;20.144;2023-04-15T03:20:44;1.92;;;1.70;;
36651;SDS011;53334;51.976;20.144;2023-04-15T03:23:18;1.58;;;1.48;;
36651;SDS011;53334;51.976;20.144;2023-04-15T03:25:52;1.67;;;1.58;;
36651;SDS011;53334;51.976;20.144;2023-04-15T03:28:27;1.73;;;1.63;;
36651;SDS011;53334;51.976;20.144;2023-04-15T03:31:03;3.58;;;2.40;;
36651;SDS011;53334;51.976;20.144;2023-04-15T03:33:36;2.20;;;2.00;;
36651;SDS011;53334;51.976;20.144;2023-04-15T03:36:09;1.98;;;1.60;;
36651;SDS011;53334;51.976;20.144;2023-04-15T03:38:43;1.90;;;1.80;;
36651;SDS011;53334;51.976;20.144;2023-04-15T03:41:16;1.95;;;1.80;;
36651;SDS011;53334;51.976;20.144;2023-04-15T03:43:49;2.13;;;1.90;;
36651;SDS011;53334;51.976;20.144;2023-04-15T03:51:31;1.95;;;1.83;;
36651;SDS011;53334;51.976;20.144;2023-04-15T03:54:04;2.03;;;1.52;;
36651;SDS011;53334;51.976;20.144;2023-04-15T03:56:37;2.03;;;1.73;;
36651;SDS011;53334;51.976;20.144;2023-04-15T03:59:10;1.95;;;1.77;;
36651;SDS011;53334;51.976;20.144;2023-04-15T04:01:45;2.22;;;1.70;;
36651;SDS011;53334;51.976;20.144;2023-04-15T04:04:18;1.92;;;1.80;;
36651;SDS011;53334;51.976;20.144;2023-04-15T04:06:52;1.45;;;1.35;;
36651;SDS011;53334;51.976;20.144;2023-04-15T04:09:25;1.80;;;1.70;;
36651;SDS011;53334;51.976;20.144;2023-04-15T04:11:58;1.90;;;1.60;;
36651;SDS011;53334;51.976;20.144;2023-04-15T04:14:31;2.40;;;1.70;;
36651;SDS011;53334;51.976;20.144;2023-04-15T04:17:06;2.17;;;1.98;;
36651;SDS011;53334;51.976;20.144;2023-04-15T04:19:39;4.43;;;1.85;;
36651;SDS011;53334;51.976;20.144;2023-04-15T04:22:13;1.98;;;1.88;;
36651;SDS011;53334;51.976;20.144;2023-04-15T04:24:46;2.08;;;1.85;;
36651;SDS011;53334;51.976;20.144;2023-04-15T04:27:19;1.92;;;1.67;;
36651;SDS011;53334;51.976;20.144;2023-04-15T04:29:52;1.80;;;1.70;;
36651;SDS011;53334;51.976;20.144;2023-04-15T04:32:27;1.45;;;1.35;;
36651;SDS011;53334;51.976;20.144;2023-04-15T04:35:00;2.25;;;2.05;;
36651;SDS011;53334;51.976;20.144;2023-04-15T04:37:33;2.63;;;1.50;;
36651;SDS011;53334;51.976;20.144;2023-04-15T04:40:07;1.77;;;1.67;;
36651;SDS011;53334;51.976;20.144;2023-04-15T04:42:41;2.53;;;1.60;;
36651;SDS011;53334;51.976;20.144;2023-04-15T04:45:14;1.58;;;1.48;;
36651;SDS011;53334;51.976;20.144;2023-04-15T04:47:48;1.70;;;1.60;;
36651;SDS011;53334;51.976;20.144;2023-04-15T04:50:22;1.73;;;1.63;;
36651;SDS011;53334;51.976;20.144;2023-04-15T04:52:55;2.80;;;1.92;;
36651;SDS011;53334;51.976;20.144;2023-04-15T04:55:28;1.70;;;1.60;;
36651;SDS011;53334;51.976;20.144;2023-04-15T04:58:02;1.70;;;1.50;;
36651;SDS011;53334;51.976;20.144;2023-04-15T05:00:35;1.85;;;1.75;;
36651;SDS011;53334;51.976;20.144;2023-04-15T05:03:10;2.17;;;1.98;;
36651;SDS011;53334;51.976;20.144;2023-04-15T05:05:44;4.50;;;1.48;;
36651;SDS011;53334;51.976;20.144;2023-04-15T05:08:17;2.33;;;1.55;;
36651;SDS011;53334;51.976;20.144;2023-04-15T05:10:51;3.55;;;1.58;;
36651;SDS011;53334;51.976;20.144;2023-04-15T05:13:24;2.90;;;1.50;;
36651;SDS011;53334;51.976;20.144;2023-04-15T05:15:57;4.03;;;1.52;;
36651;SDS011;53334;51.976;20.144;2023-04-15T05:18:32;1.42;;;1.33;;
36651;SDS011;53334;51.976;20.144;2023-04-15T05:21:05;4.22;;;1.73;;
36651;SDS011;53334;51.976;20.144;2023-04-15T05:23:38;2.20;;;1.60;;
36651;SDS011;53334;51.976;20.144;2023-04-15T05:26:12;2.75;;;2.08;;
36651;SDS011;53334;51.976;20.144;2023-04-15T05:28:45;9.45;;;1.73;;
36651;SDS011;53334;51.976;20.144;2023-04-15T05:31:18;2.20;;;1.67;;
36651;SDS011;53334;51.976;20.144;2023-04-15T05:33:53;2.45;;;1.55;;
36651;SDS011;53334;51.976;20.144;2023-04-15T05:36:26;3.75;;;1.52;;
36651;SDS011;53334;51.976;20.144;2023-04-15T05:39:00;4.65;;;1.73;;
36651;SDS011;53334;51.976;20.144;2023-04-15T05:44:07;8.27;;;2.15;;
36651;SDS011;53334;51.976;20.144;2023-04-15T05:46:40;4.28;;;1.73;;
36651;SDS011;53334;51.976;20.144;2023-04-15T05:49:15;9.48;;;2.20;;
36651;SDS011;53334;51.976;20.144;2023-04-15T05:51:48;12.82;;;1.98;;
36651;SDS011;53334;51.976;20.144;2023-04-15T05:54:21;7.47;;;1.75;;
36651;SDS011;53334;51.976;20.144;2023-04-15T05:56:55;4.53;;;1.73;;
36651;SDS011;53334;51.976;20.144;2023-04-15T06:02:02;8.00;;;2.38;;
36651;SDS011;53334;51.976;20.144;2023-04-15T06:09:43;2.05;;;1.75;;
36651;SDS011;53334;51.976;20.144;2023-04-15T06:12:16;5.00;;;1.90;;
36651;SDS011;53334;51.976;20.144;2023-04-15T06:14:49;3.10;;;1.95;;
36651;SDS011;53334;51.976;20.144;2023-04-15T06:17:22;2.65;;;2.08;;
36651;SDS011;53334;51.976;20.144;2023-04-15T06:19:57;2.42;;;1.55;;
36651;SDS011;53334;51.976;20.144;2023-04-15T06:22:30;2.85;;;1.80;;
36651;SDS011;53334;51.976;20.144;2023-04-15T06:25:04;1.90;;;1.80;;
36651;SDS011;53334;51.976;20.144;2023-04-15T06:27:38;6.35;;;1.67;;
36651;SDS011;53334;51.976;20.144;2023-04-15T06:30:12;2.00;;;1.40;;
36651;SDS011;53334;51.976;20.144;2023-04-15T06:32:55;3.40;;;2.33;;
36651;SDS011;53334;51.976;20.144;2023-04-15T06:35:29;2.28;;;1.85;;
36651;SDS011;53334;51.976;20.144;2023-04-15T06:38:03;4.80;;;1.60;;
36651;SDS011;53334;51.976;20.144;2023-04-15T06:40:36;2.72;;;1.80;;
36651;SDS011;53334;51.976;20.144;2023-04-15T06:43:09;8.77;;;1.55;;
36651;SDS011;53334;51.976;20.144;2023-04-15T06:45:43;6.28;;;1.90;;
36651;SDS011;53334;51.976;20.144;2023-04-15T06:48:16;2.15;;;1.90;;
36651;SDS011;53334;51.976;20.144;2023-04-15T06:50:51;1.73;;;1.40;;
36651;SDS011;53334;51.976;20.144;2023-04-15T06:53:24;6.18;;;1.67;;
36651;SDS011;53334;51.976;20.144;2023-04-15T06:55:58;2.05;;;1.73;;
36651;SDS011;53334;51.976;20.144;2023-04-15T06:58:31;4.25;;;1.98;;
36651;SDS011;53334;51.976;20.144;2023-04-15T07:01:04;3.40;;;1.60;;
36651;SDS011;53334;51.976;20.144;2023-04-15T07:03:38;2.85;;;1.60;;
36651;SDS011;53334;51.976;20.144;2023-04-15T07:06:13;2.97;;;1.65;;
36651;SDS011;53334;51.976;20.144;2023-04-15T07:08:46;4.07;;;1.70;;
36651;SDS011;53334;51.976;20.144;2023-04-15T07:11:20;1.60;;;1.50;;
36651;SDS011;53334;51.976;20.144;2023-04-15T07:13:53;1.70;;;1.58;;
36651;SDS011;53334;51.976;20.144;2023-04-15T07:16:26;3.55;;;1.67;;
36651;SDS011;53334;51.976;20.144;2023-04-15T07:19:00;2.47;;;1.92;;
36651;SDS011;53334;51.976;20.144;2023-04-15T07:24:12;6.07;;;2.08;;
36651;SDS011;53334;51.976;20.144;2023-04-15T07:26:47;7.20;;;2.17;;
36651;SDS011;53334;51.976;20.144;2023-04-15T07:29:21;2.80;;;2.17;;
36651;SDS011;53334;51.976;20.144;2023-04-15T07:31:54;2.55;;;1.83;;
36651;SDS011;53334;51.976;20.144;2023-04-15T07:34:27;5.20;;;1.70;;
36651;SDS011;53334;51.976;20.144;2023-04-15T07:37:04;2.92;;;1.98;;
36651;SDS011;53334;51.976;20.144;2023-04-15T07:39:38;2.15;;;1.92;;
36651;SDS011;53334;51.976;20.144;2023-04-15T07:42:12;4.15;;;1.88;;
36651;SDS011;53334;51.976;20.144;2023-04-15T07:44:45;9.32;;;1.85;;
36651;SDS011;53334;51.976;20.144;2023-04-15T07:47:18;9.18;;;2.35;;
36651;SDS011;53334;51.976;20.144;2023-04-15T07:49:52;4.68;;;1.75;;
36651;SDS011;53334;51.976;20.144;2023-04-15T07:52:27;4.00;;;2.33;;
36651;SDS011;53334;51.976;20.144;2023-04-15T07:55:00;5.68;;;2.15;;
36651;SDS011;53334;51.976;20.144;2023-04-15T07:57:33;6.05;;;2.17;;
36651;SDS011;53334;51.976;20.144;2023-04-15T08:00:07;1.77;;;1.67;;
36651;SDS011;53334;51.976;20.144;2023-04-15T08:02:44;8.68;;;2.13;;
36651;SDS011;53334;51.976;20.144;2023-04-15T08:05:19;9.07;;;2.60;;
36651;SDS011;53334;51.976;20.144;2023-04-15T08:07:54;3.17;;;2.03;;
36651;SDS011;53334;51.976;20.144;2023-04-15T08:10:28;8.25;;;2.50;;
36651;SDS011;53334;51.976;20.144;2023-04-15T08:13:02;18.20;;;2.78;;
36651;SDS011;53334;51.976;20.144;2023-04-15T08:15:35;17.10;;;3.03;;
36651;SDS011;53334;51.976;20.144;2023-04-15T08:18:08;5.45;;;2.60;;
36651;SDS011;53334;51.976;20.144;2023-04-15T08:20:42;9.68;;;7.75;;
36651;SDS011;53334;51.976;20.144;2023-04-15T08:23:16;15.10;;;9.43;;
36651;SDS011;53334;51.976;20.144;2023-04-15T08:25:50;12.02;;;9.95;;
36651;SDS011;53334;51.976;20.144;2023-04-15T08:30:56;9.35;;;8.35;;
36651;SDS011;53334;51.976;20.144;2023-04-15T08:33:30;10.60;;;8.20;;
36651;SDS011;53334;51.976;20.144;2023-04-15T08:36:03;8.23;;;7.05;;
36651;SDS011;53334;51.976;20.144;2023-04-15T08:38:39;8.18;;;7.07;;
36651;SDS011;53334;51.976;20.144;2023-04-15T08:41:17;8.10;;;6.40;;
36651;SDS011;53334;51.976;20.144;2023-04-15T08:43:53;10.68;;;6.97;;
36651;SDS011;53334;51.976;20.144;2023-04-15T08:46:30;8.05;;;6.47;;
36651;SDS011;53334;51.976;20.144;2023-04-15T08:49:05;7.70;;;6.53;;
36651;SDS011;53334;51.976;20.144;2023-04-15T08:51:42;13.57;;;7.32;;
36651;SDS011;53334;51.976;20.144;2023-04-15T08:54:18;18.70;;;7.47;;
36651;SDS011;53334;51.976;20.144;2023-04-15T08:56:51;8.27;;;6.78;;
36651;SDS011;53334;51.976;20.144;2023-04-15T09:01:58;6.50;;;5.07;;
36651;SDS011;53334;51.976;20.144;2023-04-15T09:04:31;10.43;;;5.28;;
36651;SDS011;53334;51.976;20.144;2023-04-15T09:07:05;6.57;;;5.68;;
36651;SDS011;53334;51.976;20.144;2023-04-15T09:09:39;8.25;;;5.47;;
36651;SDS011;53334;51.976;20.144;2023-04-15T09:12:13;8.35;;;4.97;;
36651;SDS011;53334;51.976;20.144;2023-04-15T09:14:47;11.38;;;5.28;;
36651;SDS011;53334;51.976;20.144;2023-04-15T09:17:20;9.77;;;5.30;;
36651;SDS011;53334;51.976;20.144;2023-04-15T09:20:06;8.65;;;6.03;;
36651;SDS011;53334;51.976;20.144;2023-04-15T09:22:40;15.00;;;5.20;;
36651;SDS011;53334;51.976;20.144;2023-04-15T09:25:25;9.48;;;5.43;;
36651;SDS011;53334;51.976;20.144;2023-04-15T09:28:01;9.02;;;5.53;;
36651;SDS011;53334;51.976;20.144;2023-04-15T09:30:35;7.53;;;4.85;;
36651;SDS011;53334;51.976;20.144;2023-04-15T09:35:45;7.20;;;4.85;;
36651;SDS011;53334;51.976;20.144;2023-04-15T09:38:28;11.07;;;4.70;;
36651;SDS011;53334;51.976;20.144;2023-04-15T09:41:03;7.05;;;4.53;;
36651;SDS011;53334;51.976;20.144;2023-04-15T09:43:50;11.27;;;5.18;;
36651;SDS011;53334;51.976;20.144;2023-04-15T09:49:14;11.02;;;4.60;;
36651;SDS011;53334;51.976;20.144;2023-04-15T09:51:48;12.85;;;4.53;;
36651;SDS011;53334;51.976;20.144;2023-04-15T09:54:35;7.88;;;4.45;;
36651;SDS011;53334;51.976;20.144;2023-04-15T09:57:11;7.63;;;4.22;;
36651;SDS011;53334;51.976;20.144;2023-04-15T09:59:44;13.55;;;4.45;;
36651;SDS011;53334;51.976;20.144;2023-04-15T10:02:18;7.47;;;4.90;;
36651;SDS011;53334;51.976;20.144;2023-04-15T10:04:52;6.80;;;3.97;;
36651;SDS011;53334;51.976;20.144;2023-04-15T10:07:26;6.15;;;3.88;;
36651;SDS011;53334;51.976;20.144;2023-04-15T10:10:00;4.88;;;3.80;;
36651;SDS011;53334;51.976;20.144;2023-04-15T10:12:36;4.75;;;3.65;;
36651;SDS011;53334;51.976;20.144;2023-04-15T10:15:13;7.63;;;3.70;;
36651;SDS011;53334;51.976;20.144;2023-04-15T10:17:48;5.00;;;3.67;;
36651;SDS011;53334;51.976;20.144;2023-04-15T10:20:22;4.93;;;3.60;;
36651;SDS011;53334;51.976;20.144;2023-04-15T10:22:56;5.53;;;2.95;;
36651;SDS011;53334;51.976;20.144;2023-04-15T10:25:30;9.65;;;4.00;;
36651;SDS011;53334;51.976;20.144;2023-04-15T10:28:07;7.90;;;3.75;;
36651;SDS011;53334;51.976;20.144;2023-04-15T10:30:40;6.97;;;3.78;;
36651;SDS011;53334;51.976;20.144;2023-04-15T10:33:16;3.50;;;3.05;;
36651;SDS011;53334;51.976;20.144;2023-04-15T10:35:53;13.00;;;4.53;;
36651;SDS011;53334;51.976;20.144;2023-04-15T10:38:31;7.80;;;4.13;;
36651;SDS011;53334;51.976;20.144;2023-04-15T10:41:13;11.18;;;4.82;;
36651;SDS011;53334;51.976;20.144;2023-04-15T10:43:52;8.80;;;4.93;;
36651;SDS011;53334;51.976;20.144;2023-04-15T10:46:33;8.45;;;4.20;;
36651;SDS011;53334;51.976;20.144;2023-04-15T10:49:09;12.65;;;5.25;;
36651;SDS011;53334;51.976;20.144;2023-04-15T10:51:44;10.38;;;5.00;;
36651;SDS011;53334;51.976;20.144;2023-04-15T10:54:29;11.77;;;5.57;;
36651;SDS011;53334;51.976;20.144;2023-04-15T10:57:07;9.50;;;5.35;;
36651;SDS011;53334;51.976;20.144;2023-04-15T11:00:01;10.02;;;6.93;;
36651;SDS011;53334;51.976;20.144;2023-04-15T11:02:43;12.80;;;8.77;;
36651;SDS011;53334;51.976;20.144;2023-04-15T11:05:18;18.45;;;8.48;;
36651;SDS011;53334;51.976;20.144;2023-04-15T11:07:55;8.45;;;7.18;;
36651;SDS011;53334;51.976;20.144;2023-04-15T11:13:27;13.45;;;7.35;;
36651;SDS011;53334;51.976;20.144;2023-04-15T11:16:03;16.25;;;7.28;;
36651;SDS011;53334;51.976;20.144;2023-04-15T11:18:37;14.65;;;6.53;;
36651;SDS011;53334;51.976;20.144;2023-04-15T11:21:11;10.32;;;5.13;;
36651;SDS011;53334;51.976;20.144;2023-04-15T11:23:44;12.18;;;6.00;;
36651;SDS011;53334;51.976;20.144;2023-04-15T11:26:17;7.10;;;5.25;;
36651;SDS011;53334;51.976;20.144;2023-04-15T11:28:51;10.13;;;5.28;;
36651;SDS011;53334;51.976;20.144;2023-04-15T11:31:27;10.38;;;5.30;;
36651;SDS011;53334;51.976;20.144;2023-04-15T11:34:01;14.05;;;4.50;;
36651;SDS011;53334;51.976;20.144;2023-04-15T11:36:34;8.85;;;4.50;;
36651;SDS011;53334;51.976;20.144;2023-04-15T11:41:42;9.23;;;3.95;;
36651;SDS011;53334;51.976;20.144;2023-04-15T11:44:15;15.00;;;4.72;;
36651;SDS011;53334;51.976;20.144;2023-04-15T11:49:27;6.25;;;3.83;;
36651;SDS011;53334;51.976;20.144;2023-04-15T11:52:05;9.98;;;4.05;;
36651;SDS011;53334;51.976;20.144;2023-04-15T11:54:42;6.60;;;3.20;;
36651;SDS011;53334;51.976;20.144;2023-04-15T11:57:17;8.90;;;3.95;;
36651;SDS011;53334;51.976;20.144;2023-04-15T11:59:50;14.35;;;4.53;;
36651;SDS011;53334;51.976;20.144;2023-04-15T12:02:30;5.68;;;2.97;;
36651;SDS011;53334;51.976;20.144;2023-04-15T12:05:05;12.80;;;4.45;;
36651;SDS011;53334;51.976;20.144;2023-04-15T12:10:30;10.45;;;4.07;;
36651;SDS011;53334;51.976;20.144;2023-04-15T12:13:05;5.95;;;3.33;;
36651;SDS011;53334;51.976;20.144;2023-04-15T12:15:39;11.05;;;4.00;;
36651;SDS011;53334;51.976;20.144;2023-04-15T12:18:17;5.32;;;3.50;;
36651;SDS011;53334;51.976;20.144;2023-04-15T12:20:50;6.25;;;3.28;;
36651;SDS011;53334;51.976;20.144;2023-04-15T12:23:25;7.75;;;3.10;;
36651;SDS011;53334;51.976;20.144;2023-04-15T12:25:58;6.00;;;3.28;;
36651;SDS011;53334;51.976;20.144;2023-04-15T12:28:36;6.25;;;3.25;;
36651;SDS011;53334;51.976;20.144;2023-04-15T12:31:12;6.63;;;3.00;;
36651;SDS011;53334;51.976;20.144;2023-04-15T12:33:48;9.82;;;3.22;;
36651;SDS011;53334;51.976;20.144;2023-04-15T12:36:21;10.50;;;3.47;;
36651;SDS011;53334;51.976;20.144;2023-04-15T12:38:55;8.02;;;2.75;;
36651;SDS011;53334;51.976;20.144;2023-04-15T12:41:28;15.07;;;3.00;;
36651;SDS011;53334;51.976;20.144;2023-04-15T12:44:02;9.73;;;3.20;;
36651;SDS011;53334;51.976;20.144;2023-04-15T12:49:10;31.08;;;4.13;;
36651;SDS011;53334;51.976;20.144;2023-04-15T12:51:46;9.77;;;4.60;;
36651;SDS011;53334;51.976;20.144;2023-04-15T12:54:20;11.38;;;4.15;;
36651;SDS011;53334;51.976;20.144;2023-04-15T12:56:53;8.75;;;3.70;;
36651;SDS011;53334;51.976;20.144;2023-04-15T13:02:00;11.13;;;3.55;;
36651;SDS011;53334;51.976;20.144;2023-04-15T13:04:35;9.82;;;3.63;;
36651;SDS011;53334;51.976;20.144;2023-04-15T13:07:09;10.95;;;3.58;;
36651;SDS011;53334;51.976;20.144;2023-04-15T13:09:44;6.80;;;3.78;;
36651;SDS011;53334;51.976;20.144;2023-04-15T13:12:17;26.60;;;4.78;;
36651;SDS011;53334;51.976;20.144;2023-04-15T13:14:50;17.27;;;4.82;;
36651;SDS011;53334;51.976;20.144;2023-04-15T13:17:24;11.05;;;4.00;;
36651;SDS011;53334;51.976;20.144;2023-04-15T13:19:58;22.00;;;4.10;;
36651;SDS011;53334;51.976;20.144;2023-04-15T13:22:32;14.80;;;4.28;;
36651;SDS011;53334;51.976;20.144;2023-04-15T13:25:05;12.18;;;4.65;;
36651;SDS011;53334;51.976;20.144;2023-04-15T13:27:39;13.25;;;3.92;;
36651;SDS011;53334;51.976;20.144;2023-04-15T13:30:13;12.48;;;3.97;;
36651;SDS011;53334;51.976;20.144;2023-04-15T13:32:46;9.70;;;3.33;;
36651;SDS011;53334;51.976;20.144;2023-04-15T13:35:22;10.52;;;4.28;;
36651;SDS011;53334;51.976;20.144;2023-04-15T13:37:55;9.57;;;4.20;;
36651;SDS011;53334;51.976;20.144;2023-04-15T13:40:29;10.02;;;3.78;;
36651;SDS011;53334;51.976;20.144;2023-04-15T13:43:04;16.65;;;3.80;;
36651;SDS011;53334;51.976;20.144;2023-04-15T13:48:13;14.05;;;3.58;;
36651;SDS011;53334;51.976;20.144;2023-04-15T13:50:48;14.38;;;4.05;;
36651;SDS011;53334;51.976;20.144;2023-04-15T13:53:21;10.32;;;4.03;;
36651;SDS011;53334;51.976;20.144;2023-04-15T13:56:09;10.95;;;4.43;;
36651;SDS011;53334;51.976;20.144;2023-04-15T13:58:42;12.75;;;3.88;;
36651;SDS011;53334;51.976;20.144;2023-04-15T14:01:16;13.18;;;4.00;;
36651;SDS011;53334;51.976;20.144;2023-04-15T14:03:49;9.68;;;4.40;;
36651;SDS011;53334;51.976;20.144;2023-04-15T14:06:24;11.07;;;4.57;;
36651;SDS011;53334;51.976;20.144;2023-04-15T14:08:57;6.78;;;3.47;;
36651;SDS011;53334;51.976;20.144;2023-04-15T14:11:31;11.82;;;3.50;;
36651;SDS011;53334;51.976;20.144;2023-04-15T14:14:05;12.63;;;5.50;;
36651;SDS011;53334;51.976;20.144;2023-04-15T14:16:39;13.07;;;7.13;;
36651;SDS011;53334;51.976;20.144;2023-04-15T14:19:13;11.40;;;6.65;;
36651;SDS011;53334;51.976;20.144;2023-04-15T14:21:47;13.85;;;6.00;;
36651;SDS011;53334;51.976;20.144;2023-04-15T14:24:20;17.58;;;6.53;;
36651;SDS011;53334;51.976;20.144;2023-04-15T14:26:54;14.98;;;6.32;;
36651;SDS011;53334;51.976;20.144;2023-04-15T14:29:27;11.95;;;5.75;;
36651;SDS011;53334;51.976;20.144;2023-04-15T14:32:01;16.05;;;7.85;;
36651;SDS011;53334;51.976;20.144;2023-04-15T14:34:42;31.00;;;10.02;;
36651;SDS011;53334;51.976;20.144;2023-04-15T14:37:17;19.90;;;9.40;;
36651;SDS011;53334;51.976;20.144;2023-04-15T14:39:51;30.23;;;8.75;;
36651;SDS011;53334;51.976;20.144;2023-04-15T14:42:24;19.17;;;8.25;;
36651;SDS011;53334;51.976;20.144;2023-04-15T14:44:58;24.60;;;8.95;;
36651;SDS011;53334;51.976;20.144;2023-04-15T14:47:32;21.88;;;8.70;;
36651;SDS011;53334;51.976;20.144;2023-04-15T14:50:06;16.38;;;8.65;;
36651;SDS011;53334;51.976;20.144;2023-04-15T14:52:41;16.05;;;7.97;;
36651;SDS011;53334;51.976;20.144;2023-04-15T14:55:14;22.25;;;7.95;;
36651;SDS011;53334;51.976;20.144;2023-04-15T14:57:47;21.83;;;7.03;;
36651;SDS011;53334;51.976;20.144;2023-04-15T15:00:21;22.95;;;7.10;;
36651;SDS011;53334;51.976;20.144;2023-04-15T15:02:54;26.23;;;8.68;;
36651;SDS011;53334;51.976;20.144;2023-04-15T15:08:02;19.45;;;6.90;;
36651;SDS011;53334;51.976;20.144;2023-04-15T15:10:36;18.33;;;6.03;;
36651;SDS011;53334;51.976;20.144;2023-04-15T15:13:20;17.45;;;5.38;;
36651;SDS011;53334;51.976;20.144;2023-04-15T15:15:53;16.40;;;5.93;;
36651;SDS011;53334;51.976;20.144;2023-04-15T15:18:26;19.25;;;6.13;;
36651;SDS011;53334;51.976;20.144;2023-04-15T15:21:00;16.40;;;6.18;;
36651;SDS011;53334;51.976;20.144;2023-04-15T15:23:35;23.90;;;6.13;;
36651;SDS011;53334;51.976;20.144;2023-04-15T15:26:08;11.38;;;4.35;;
36651;SDS011;53334;51.976;20.144;2023-04-15T15:28:41;10.43;;;4.05;;
36651;SDS011;53334;51.976;20.144;2023-04-15T15:31:15;8.30;;;4.18;;
36651;SDS011;53334;51.976;20.144;2023-04-15T15:33:49;20.60;;;4.65;;
36651;SDS011;53334;51.976;20.144;2023-04-15T15:36:23;11.68;;;4.47;;
36651;SDS011;53334;51.976;20.144;2023-04-15T15:38:58;9.63;;;3.65;;
36651;SDS011;53334;51.976;20.144;2023-04-15T15:41:32;8.57;;;4.00;;
36651;SDS011;53334;51.976;20.144;2023-04-15T15:44:05;4.95;;;3.03;;
36651;SDS011;53334;51.976;20.144;2023-04-15T15:46:38;13.60;;;3.97;;
36651;SDS011;53334;51.976;20.144;2023-04-15T15:49:12;10.85;;;3.70;;
36651;SDS011;53334;51.976;20.144;2023-04-15T15:51:45;7.00;;;2.88;;
36651;SDS011;53334;51.976;20.144;2023-04-15T15:54:21;9.43;;;3.13;;
36651;SDS011;53334;51.976;20.144;2023-04-15T15:56:55;6.45;;;3.22;;
36651;SDS011;53334;51.976;20.144;2023-04-15T15:59:29;7.30;;;3.97;;
36651;SDS011;53334;51.976;20.144;2023-04-15T16:02:03;10.98;;;2.90;;
36651;SDS011;53334;51.976;20.144;2023-04-15T16:04:36;7.75;;;3.60;;
36651;SDS011;53334;51.976;20.144;2023-04-15T16:09:46;13.73;;;4.35;;